createdAt,value
2022-08-02T00:00:14.327Z,19.10
2022-08-02T00:02:45.862Z,19.10
2022-08-02T00:05:13.825Z,19.10
2022-08-02T00:07:41.654Z,19.20
2022-08-02T00:10:10.708Z,19.10
2022-08-02T00:12:39.129Z,19.00
2022-08-02T00:15:08.023Z,18.90
2022-08-02T00:17:35.037Z,18.90
2022-08-02T00:20:02.382Z,18.80
2022-08-02T00:22:29.537Z,18.80
2022-08-02T00:24:56.529Z,18.70
2022-08-02T00:27:23.501Z,18.70
2022-08-02T00:29:53.329Z,18.60
2022-08-02T00:32:21.643Z,18.60
2022-08-02T00:34:49.148Z,18.50
2022-08-02T00:37:16.331Z,18.40
2022-08-02T00:39:43.655Z,18.40
2022-08-02T00:42:11.421Z,18.40
2022-08-02T00:44:38.553Z,18.30
2022-08-02T00:47:05.921Z,18.30
2022-08-02T00:49:33.303Z,18.30
2022-08-02T00:52:00.963Z,18.20
2022-08-02T00:54:27.975Z,18.20
2022-08-02T00:56:54.998Z,18.20
2022-08-02T00:59:22.317Z,18.20
2022-08-02T01:01:57.339Z,18.20
2022-08-02T01:04:31.161Z,18.20
2022-08-02T01:07:13.557Z,18.10
2022-08-02T01:09:44.189Z,18.10
2022-08-02T01:12:13.090Z,18.00
2022-08-02T01:14:46.286Z,17.90
2022-08-02T01:17:47.149Z,17.90
2022-08-02T01:20:34.442Z,17.80
2022-08-02T01:23:28.686Z,17.80
2022-08-02T01:26:25.288Z,17.80
2022-08-02T01:29:08.755Z,17.70
2022-08-02T01:31:50.849Z,17.70
2022-08-02T01:34:26.766Z,17.70
2022-08-02T01:37:03.341Z,17.60
2022-08-02T01:39:33.771Z,17.60
2022-08-02T01:42:02.343Z,17.60
2022-08-02T01:44:33.529Z,17.50
2022-08-02T01:47:05.183Z,17.40
2022-08-02T01:49:34.721Z,17.40
2022-08-02T01:52:23.983Z,17.40
2022-08-02T01:55:16.082Z,17.40
2022-08-02T01:57:49.715Z,17.40
2022-08-02T02:00:18.460Z,17.40
2022-08-02T02:02:49.388Z,17.40
2022-08-02T02:05:19.448Z,17.30
2022-08-02T02:07:49.769Z,17.30
2022-08-02T02:10:22.715Z,17.30
2022-08-02T02:12:54.164Z,17.30
2022-08-02T02:15:23.847Z,17.30
2022-08-02T02:18:12.778Z,17.40
2022-08-02T02:20:41.552Z,17.30
2022-08-02T02:23:08.593Z,17.30
2022-08-02T02:25:41.771Z,17.30
2022-08-02T02:28:30.506Z,17.20
2022-08-02T02:31:03.445Z,17.10
2022-08-02T02:33:33.622Z,17.10
2022-08-02T02:36:02.212Z,17.00
2022-08-02T02:38:32.406Z,17.00
2022-08-02T02:41:04.319Z,17.00
2022-08-02T02:43:34.159Z,17.00
2022-08-02T02:46:04.120Z,16.90
2022-08-02T02:48:32.446Z,16.90
2022-08-02T02:51:01.233Z,16.90
2022-08-02T02:53:30.631Z,16.90
2022-08-02T02:56:18.908Z,17.00
2022-08-02T02:58:47.156Z,16.90
2022-08-02T03:01:55.948Z,16.80
2022-08-02T03:04:16.775Z,16.80
2022-08-02T03:06:43.842Z,16.70
2022-08-02T03:09:11.680Z,16.70
2022-08-02T03:11:39.852Z,16.70
2022-08-02T03:14:12.727Z,16.70
2022-08-02T03:16:45.455Z,16.70
2022-08-02T03:19:12.682Z,16.70
2022-08-02T03:21:39.752Z,16.80
2022-08-02T03:24:07.832Z,16.60
2022-08-02T03:26:35.651Z,16.50
2022-08-02T03:29:10.187Z,16.50
2022-08-02T03:31:41.871Z,16.40
2022-08-02T03:34:09.274Z,16.40
2022-08-02T03:36:37.472Z,16.20
2022-08-02T03:39:05.583Z,16.20
2022-08-02T03:41:33.415Z,16.20
2022-08-02T03:44:02.051Z,16.10
2022-08-02T03:46:29.586Z,16.10
2022-08-02T03:48:57.636Z,16.10
2022-08-02T03:51:25.244Z,16.00
2022-08-02T03:53:52.628Z,16.00
2022-08-02T03:56:20.027Z,16.00
2022-08-02T03:58:49.241Z,16.00
2022-08-02T04:01:16.995Z,15.90
2022-08-02T04:03:44.222Z,15.90
2022-08-02T04:06:11.258Z,15.90
2022-08-02T04:08:39.011Z,16.00
2022-08-02T04:11:25.719Z,16.00
2022-08-02T04:13:54.697Z,16.00
2022-08-02T04:16:41.052Z,16.00
2022-08-02T04:19:15.004Z,16.20
2022-08-02T04:21:51.716Z,16.20
2022-08-02T04:24:27.782Z,16.30
2022-08-02T04:27:06.810Z,16.30
2022-08-02T04:29:47.965Z,16.40
2022-08-02T04:32:16.546Z,16.50
2022-08-02T04:35:11.360Z,16.50
2022-08-02T04:37:33.412Z,16.60
2022-08-02T04:40:00.805Z,16.70
2022-08-02T04:42:27.776Z,16.80
2022-08-02T04:44:55.109Z,17.00
2022-08-02T04:47:54.404Z,17.00
2022-08-02T04:50:09.980Z,17.10
2022-08-02T04:52:37.054Z,17.20
2022-08-02T04:55:04.382Z,17.30
2022-08-02T04:57:52.574Z,17.40
2022-08-02T05:00:20.774Z,17.40
2022-08-02T05:02:48.891Z,17.50
2022-08-02T05:05:16.582Z,17.50
2022-08-02T05:07:43.643Z,17.50
2022-08-02T05:10:11.195Z,17.60
2022-08-02T05:12:39.273Z,17.70
2022-08-02T05:15:07.012Z,17.90
2022-08-02T05:17:47.782Z,18.10
2022-08-02T05:20:19.381Z,18.30
2022-08-02T05:22:47.201Z,18.50
2022-08-02T05:25:14.787Z,18.60
2022-08-02T05:27:41.998Z,18.80
2022-08-02T05:30:10.381Z,19.00
2022-08-02T05:32:48.351Z,19.50
2022-08-02T05:35:19.978Z,20.80
2022-08-02T05:37:48.360Z,22.60
2022-08-02T05:40:16.269Z,24.30
2022-08-02T05:42:44.752Z,25.70
2022-08-02T05:45:12.647Z,26.80
2022-08-02T05:47:40.349Z,27.50
2022-08-02T05:50:08.838Z,28.50
2022-08-02T05:52:47.179Z,29.70
2022-08-02T05:55:22.801Z,30.90
2022-08-02T05:58:08.562Z,32.50
2022-08-02T06:00:36.679Z,33.40
2022-08-02T06:03:17.066Z,33.80
2022-08-02T06:06:00.612Z,33.20
2022-08-02T06:08:39.638Z,32.70
2022-08-02T06:11:09.768Z,32.70
2022-08-02T06:13:37.252Z,32.40
2022-08-02T06:16:06.157Z,32.00
2022-08-02T06:18:43.163Z,31.70
2022-08-02T06:22:33.858Z,31.60
2022-08-02T06:24:01.404Z,32.90
2022-08-02T06:26:28.881Z,34.60
2022-08-02T06:28:57.470Z,35.40
2022-08-02T06:31:24.825Z,36.20
2022-08-02T06:33:52.453Z,37.00
2022-08-02T06:36:31.513Z,37.70
2022-08-02T06:39:21.015Z,38.20
2022-08-02T06:41:50.006Z,38.40
2022-08-02T06:44:45.702Z,38.60
2022-08-02T06:47:11.218Z,38.90
2022-08-02T06:49:51.501Z,39.40
2022-08-02T06:52:29.726Z,39.50
2022-08-02T06:55:03.729Z,39.40
2022-08-02T06:57:31.698Z,39.30
2022-08-02T07:00:01.901Z,39.00
2022-08-02T07:02:42.727Z,37.20
2022-08-02T07:05:09.959Z,36.60
2022-08-02T07:07:37.203Z,37.20
2022-08-02T07:10:04.837Z,38.30
2022-08-02T07:12:34.017Z,38.90
2022-08-02T07:15:03.740Z,39.30
2022-08-02T07:17:31.228Z,39.60
2022-08-02T07:19:59.273Z,39.70
2022-08-02T07:22:28.446Z,39.60
2022-08-02T07:24:57.409Z,39.00
2022-08-02T07:27:25.519Z,38.30
2022-08-02T07:29:53.423Z,37.60
2022-08-02T07:32:22.820Z,37.10
2022-08-02T07:34:50.846Z,36.80
2022-08-02T07:37:53.931Z,36.60
2022-08-02T07:40:13.441Z,36.50
2022-08-02T07:42:43.779Z,36.00
2022-08-02T07:45:11.592Z,35.70
2022-08-02T07:47:42.725Z,35.60
2022-08-02T07:50:11.950Z,35.10
2022-08-02T07:52:40.026Z,34.90
2022-08-02T07:55:07.777Z,34.00
2022-08-02T07:57:34.827Z,33.30
2022-08-02T08:00:01.837Z,33.00
2022-08-02T08:02:28.875Z,32.70
2022-08-02T08:04:55.895Z,32.60
2022-08-02T08:07:23.360Z,32.60
2022-08-02T08:09:53.655Z,32.50
2022-08-02T08:12:24.008Z,32.60
2022-08-02T08:14:51.132Z,32.60
2022-08-02T08:17:18.523Z,32.60
2022-08-02T08:19:51.573Z,32.60
2022-08-02T08:22:22.351Z,32.30
2022-08-02T08:24:49.578Z,31.90
2022-08-02T08:27:18.314Z,31.90
2022-08-02T08:29:46.400Z,32.30
2022-08-02T08:32:17.697Z,32.40
2022-08-02T08:34:48.654Z,32.60
2022-08-02T08:37:18.343Z,32.80
2022-08-02T08:39:56.362Z,32.90
2022-08-02T08:42:29.254Z,33.00
2022-08-02T08:44:57.493Z,32.90
2022-08-02T08:47:34.371Z,32.80
2022-08-02T08:50:08.809Z,32.80
2022-08-02T08:52:42.854Z,32.80
2022-08-02T08:55:12.152Z,32.80
2022-08-02T08:57:42.481Z,32.70
2022-08-02T09:00:13.686Z,32.60
2022-08-02T09:02:42.674Z,32.80
2022-08-02T09:05:16.087Z,33.00
2022-08-02T09:07:45.112Z,33.00
2022-08-02T09:10:41.665Z,33.10
2022-08-02T09:13:43.490Z,33.10
2022-08-02T09:16:12.585Z,33.10
2022-08-02T09:18:44.899Z,33.00
2022-08-02T09:21:12.625Z,33.40
2022-08-02T09:23:47.799Z,33.50
2022-08-02T09:26:18.251Z,33.80
2022-08-02T09:28:50.630Z,34.10
2022-08-02T09:31:20.371Z,34.30
2022-08-02T09:33:58.820Z,34.30
2022-08-02T09:36:28.323Z,34.30
2022-08-02T09:39:04.876Z,33.70
2022-08-02T09:41:34.000Z,33.30
2022-08-02T09:44:06.438Z,33.10
2022-08-02T09:46:41.796Z,32.60
2022-08-02T09:49:11.559Z,32.20
2022-08-02T09:51:51.511Z,31.60
2022-08-02T09:54:29.383Z,31.80
2022-08-02T09:56:58.899Z,32.60
2022-08-02T09:59:27.774Z,33.40
2022-08-02T10:01:59.031Z,33.50
2022-08-02T10:04:31.825Z,33.30
2022-08-02T10:07:04.520Z,33.30
2022-08-02T10:09:32.376Z,33.80
2022-08-02T10:12:01.297Z,34.40
2022-08-02T10:14:28.412Z,34.90
2022-08-02T10:16:58.091Z,35.00
2022-08-02T10:19:38.841Z,35.30
2022-08-02T10:22:16.503Z,35.50
2022-08-02T10:24:47.498Z,35.70
2022-08-02T10:27:20.687Z,35.70
2022-08-02T10:29:54.115Z,35.50
2022-08-02T10:32:39.681Z,34.70
2022-08-02T10:35:19.624Z,34.50
2022-08-02T10:37:58.203Z,34.50
2022-08-02T10:40:27.126Z,34.10
2022-08-02T10:42:56.205Z,33.40
2022-08-02T10:45:23.617Z,32.70
2022-08-02T10:48:02.569Z,32.00
2022-08-02T10:50:48.304Z,31.50
2022-08-02T10:53:31.680Z,30.70
2022-08-02T10:56:00.891Z,30.90
2022-08-02T10:58:33.506Z,31.40
2022-08-02T11:01:38.989Z,31.40
2022-08-02T11:04:10.530Z,31.30
2022-08-02T11:07:07.981Z,31.10
2022-08-02T11:09:35.559Z,31.10
2022-08-02T11:12:09.314Z,30.90
2022-08-02T11:14:40.507Z,30.80
2022-08-02T11:17:16.618Z,31.10
2022-08-02T11:20:11.732Z,31.50
2022-08-02T11:22:40.013Z,31.50
2022-08-02T11:25:32.054Z,31.40
2022-08-02T11:28:10.956Z,31.00
2022-08-02T11:30:38.805Z,30.60
2022-08-02T11:33:06.758Z,30.20
2022-08-02T11:35:38.193Z,29.80
2022-08-02T11:38:14.642Z,29.50
2022-08-02T11:40:43.704Z,29.50
2022-08-02T11:43:18.044Z,30.30
2022-08-02T11:45:45.335Z,30.40
2022-08-02T11:48:12.384Z,30.00
2022-08-02T11:50:39.433Z,29.70
2022-08-02T11:53:16.920Z,30.00
2022-08-02T11:55:45.053Z,30.50
2022-08-02T11:58:12.086Z,30.20
2022-08-02T12:00:39.860Z,29.80
2022-08-02T12:03:07.269Z,29.80
2022-08-02T12:06:04.963Z,29.90
2022-08-02T12:08:25.440Z,30.60
2022-08-02T12:10:52.567Z,31.70
2022-08-02T12:13:19.734Z,31.70
2022-08-02T12:15:47.318Z,31.30
2022-08-02T12:18:35.433Z,31.70
2022-08-02T12:21:04.176Z,32.20
2022-08-02T12:23:31.472Z,32.20
2022-08-02T12:26:05.046Z,31.80
2022-08-02T12:28:35.532Z,31.40
2022-08-02T12:31:02.751Z,30.90
2022-08-02T12:33:50.057Z,30.50
2022-08-02T12:36:24.712Z,30.20
2022-08-02T12:38:59.849Z,30.10
2022-08-02T12:41:31.066Z,30.00
2022-08-02T12:44:00.915Z,29.80
2022-08-02T12:46:28.654Z,29.80
2022-08-02T12:49:16.805Z,29.90
2022-08-02T12:51:51.154Z,29.90
2022-08-02T12:54:32.089Z,30.20
2022-08-02T12:57:11.877Z,30.00
2022-08-02T12:59:40.837Z,30.50
2022-08-02T13:02:12.277Z,31.00
2022-08-02T13:04:40.476Z,31.20
2022-08-02T13:07:09.358Z,30.90
2022-08-02T13:09:44.424Z,30.60
2022-08-02T13:12:12.030Z,30.70
2022-08-02T13:14:42.002Z,31.40
2022-08-02T13:17:10.174Z,32.30
2022-08-02T13:19:38.593Z,33.00
2022-08-02T13:22:06.285Z,33.50
2022-08-02T13:24:40.030Z,33.70
2022-08-02T13:27:22.417Z,33.80
2022-08-02T13:29:50.905Z,33.50
2022-08-02T13:32:18.226Z,33.20
2022-08-02T13:34:45.698Z,33.10
2022-08-02T13:37:12.728Z,32.90
2022-08-02T13:39:39.692Z,32.90
2022-08-02T13:42:07.297Z,33.20
2022-08-02T13:44:34.973Z,33.40
2022-08-02T13:47:03.047Z,33.60
2022-08-02T13:49:50.619Z,33.70
2022-08-02T13:52:17.777Z,33.70
2022-08-02T13:54:44.793Z,33.40
2022-08-02T13:57:11.777Z,32.90
2022-08-02T13:59:57.971Z,33.10
2022-08-02T14:02:29.428Z,33.40
2022-08-02T14:04:57.129Z,33.50
2022-08-02T14:07:24.280Z,33.30
2022-08-02T14:09:51.316Z,32.70
2022-08-02T14:12:19.646Z,32.70
2022-08-02T14:14:46.589Z,33.10
2022-08-02T14:17:13.792Z,33.30
2022-08-02T14:19:40.761Z,33.40
2022-08-02T14:22:11.412Z,33.80
2022-08-02T14:24:39.688Z,34.10
2022-08-02T14:27:06.877Z,34.40
2022-08-02T14:29:34.484Z,34.40
2022-08-02T14:32:01.673Z,34.30
2022-08-02T14:34:29.665Z,34.30
2022-08-02T14:36:57.595Z,34.20
2022-08-02T14:39:24.588Z,33.80
2022-08-02T14:41:59.546Z,33.60
2022-08-02T14:44:28.960Z,33.70
2022-08-02T14:46:56.558Z,33.70
2022-08-02T14:49:24.432Z,33.40
2022-08-02T14:51:57.147Z,33.60
2022-08-02T14:54:30.419Z,33.80
2022-08-02T14:57:00.198Z,33.90
2022-08-02T14:59:28.123Z,33.70
2022-08-02T15:01:55.378Z,33.60
2022-08-02T15:04:22.478Z,32.80
2022-08-02T15:06:50.753Z,32.30
2022-08-02T15:09:17.766Z,32.00
2022-08-02T15:11:47.580Z,31.80
2022-08-02T15:14:25.607Z,32.00
2022-08-02T15:16:57.482Z,32.30
2022-08-02T15:19:44.926Z,32.50
2022-08-02T15:22:16.667Z,32.60
2022-08-02T15:24:44.624Z,32.80
2022-08-02T15:27:14.272Z,33.10
2022-08-02T15:29:43.493Z,33.10
2022-08-02T15:32:11.301Z,33.30
2022-08-02T15:34:39.106Z,33.30
2022-08-02T15:37:06.103Z,33.30
2022-08-02T15:39:33.100Z,33.20
2022-08-02T15:42:00.079Z,33.00
2022-08-02T15:44:27.173Z,32.80
2022-08-02T15:46:54.526Z,32.60
2022-08-02T15:49:24.136Z,32.50
2022-08-02T15:51:54.760Z,32.20
2022-08-02T15:54:21.820Z,32.20
2022-08-02T15:56:48.915Z,32.20
2022-08-02T15:59:16.036Z,32.30
2022-08-02T16:01:47.235Z,32.30
2022-08-02T16:04:16.106Z,32.00
2022-08-02T16:06:44.409Z,31.90
2022-08-02T16:09:11.582Z,31.60
2022-08-02T16:11:39.249Z,31.40
2022-08-02T16:14:06.805Z,31.30
2022-08-02T16:16:36.138Z,31.20
2022-08-02T16:19:45.938Z,31.00
2022-08-02T16:21:52.917Z,30.90
2022-08-02T16:24:20.369Z,30.90
2022-08-02T16:26:47.721Z,31.00
2022-08-02T16:29:18.850Z,31.10
2022-08-02T16:31:47.412Z,31.20
2022-08-02T16:34:15.172Z,31.20
2022-08-02T16:36:42.262Z,31.20
2022-08-02T16:39:09.342Z,31.00
2022-08-02T16:41:50.266Z,30.90
2022-08-02T16:44:28.981Z,30.80
2022-08-02T16:47:00.901Z,30.60
2022-08-02T16:50:05.217Z,30.50
2022-08-02T16:52:19.148Z,30.10
2022-08-02T16:54:49.920Z,30.00
2022-08-02T16:57:19.778Z,29.90
2022-08-02T16:59:58.255Z,29.70
2022-08-02T17:02:26.285Z,29.60
2022-08-02T17:04:53.417Z,29.50
2022-08-02T17:08:15.982Z,29.40
2022-08-02T17:10:09.510Z,29.30
2022-08-02T17:12:38.167Z,29.10
2022-08-02T17:16:01.329Z,29.00
2022-08-02T17:17:53.703Z,28.90
2022-08-02T17:20:20.822Z,28.70
2022-08-02T17:22:47.991Z,28.60
2022-08-02T17:25:17.645Z,28.60
2022-08-02T17:27:45.388Z,28.50
2022-08-02T17:30:14.157Z,28.50
2022-08-02T17:32:45.573Z,28.40
2022-08-02T17:35:12.842Z,28.30
2022-08-02T17:37:43.060Z,28.30
2022-08-02T17:40:23.880Z,28.30
2022-08-02T17:42:51.025Z,28.20
2022-08-02T17:45:25.925Z,28.10
2022-08-02T17:48:05.688Z,28.00
2022-08-02T17:50:34.291Z,27.90
2022-08-02T17:53:02.480Z,27.90
2022-08-02T17:55:31.039Z,27.80
2022-08-02T17:57:59.395Z,27.70
2022-08-02T18:00:38.043Z,27.60
2022-08-02T18:03:09.884Z,27.50
2022-08-02T18:08:24.794Z,27.40
2022-08-02T18:10:55.949Z,27.30
2022-08-02T18:13:23.816Z,27.20
2022-08-02T18:15:57.276Z,27.10
2022-08-02T18:24:00.540Z,26.90
2022-08-02T18:26:28.776Z,26.70
2022-08-02T18:28:57.262Z,26.60
2022-08-02T18:31:25.385Z,26.50
2022-08-02T18:33:57.911Z,26.50
2022-08-02T18:36:29.548Z,26.40
2022-08-02T18:38:57.287Z,26.30
2022-08-02T18:41:24.713Z,26.20
2022-08-02T18:43:51.811Z,26.10
2022-08-02T18:46:20.088Z,26.10
2022-08-02T18:48:47.888Z,25.90
2022-08-02T18:51:18.929Z,25.70
2022-08-02T18:53:51.410Z,25.60
2022-08-02T18:56:19.390Z,25.40
2022-08-02T18:58:52.489Z,25.30
2022-08-02T19:01:32.332Z,25.10
2022-08-02T19:04:03.076Z,25.00
2022-08-02T19:06:30.751Z,24.90
2022-08-02T19:09:05.803Z,24.80
2022-08-02T19:11:48.335Z,24.70
2022-08-02T19:14:27.305Z,24.60
2022-08-02T19:16:56.450Z,24.40
2022-08-02T19:19:28.642Z,24.20
2022-08-02T19:22:16.258Z,24.10
2022-08-02T19:24:44.057Z,23.90
2022-08-02T19:27:20.641Z,23.80
2022-08-02T19:29:53.736Z,23.70
2022-08-02T19:35:15.334Z,23.60
2022-08-02T19:37:58.857Z,23.50
2022-08-02T19:40:29.014Z,23.40
2022-08-02T19:45:49.675Z,23.10
2022-08-02T19:48:24.002Z,23.00
2022-08-02T19:50:55.914Z,22.90
2022-08-02T19:53:28.917Z,22.80
2022-08-02T19:56:20.523Z,22.70
2022-08-02T19:58:51.383Z,22.60
2022-08-02T20:01:27.004Z,22.50
2022-08-02T20:04:05.051Z,22.40
2022-08-02T20:06:32.151Z,22.30
2022-08-02T20:09:03.453Z,22.30
2022-08-02T20:11:34.609Z,22.10
2022-08-02T20:14:07.190Z,22.00
2022-08-02T20:16:36.434Z,21.90
2022-08-02T20:19:08.296Z,21.80
2022-08-02T20:21:37.782Z,21.70
2022-08-02T20:24:10.187Z,21.70
2022-08-02T20:26:46.969Z,21.60
2022-08-02T20:29:17.497Z,21.60
2022-08-02T20:32:03.850Z,21.50
2022-08-02T20:34:31.954Z,21.50
2022-08-02T20:37:55.739Z,21.50
2022-08-02T20:39:48.552Z,21.50
2022-08-02T20:42:22.566Z,21.40
2022-08-02T20:44:54.787Z,21.40
2022-08-02T20:47:27.852Z,21.20
2022-08-02T20:50:30.344Z,21.10
2022-08-02T20:53:03.963Z,20.90
2022-08-02T20:55:32.131Z,20.90
2022-08-02T20:58:04.632Z,20.80
2022-08-02T21:00:32.798Z,20.70
2022-08-02T21:03:01.033Z,20.70
2022-08-02T21:05:54.227Z,20.60
2022-08-02T21:08:19.185Z,20.60
2022-08-02T21:10:52.536Z,20.50
2022-08-02T21:13:26.821Z,20.30
2022-08-02T21:15:55.199Z,20.20
2022-08-02T21:18:33.390Z,20.10
2022-08-02T21:21:08.650Z,20.10
2022-08-02T21:23:36.692Z,20.10
2022-08-02T21:26:06.735Z,20.10
2022-08-02T21:28:45.018Z,20.00
2022-08-02T21:31:15.784Z,20.00
2022-08-02T21:33:57.063Z,19.90
2022-08-02T21:36:32.721Z,19.80
2022-08-02T21:39:09.096Z,19.70
2022-08-02T21:41:46.177Z,19.70
2022-08-02T21:44:19.009Z,19.70
2022-08-02T21:46:49.315Z,19.60
2022-08-02T21:49:21.015Z,19.60
2022-08-02T21:52:08.482Z,19.50
2022-08-02T21:54:35.756Z,19.40
2022-08-02T21:57:07.467Z,19.40
2022-08-02T21:59:35.607Z,19.40
2022-08-02T22:02:05.388Z,19.30
2022-08-02T22:04:36.362Z,19.20
2022-08-02T22:07:03.457Z,19.20
2022-08-02T22:09:43.256Z,19.10
2022-08-02T22:12:19.012Z,19.00
2022-08-02T22:14:54.214Z,19.10
2022-08-02T22:17:50.485Z,19.00
2022-08-02T22:20:18.241Z,18.90
2022-08-02T22:22:45.649Z,18.90
2022-08-02T22:25:26.374Z,18.80
2022-08-02T22:28:34.961Z,18.70
2022-08-02T22:30:52.631Z,18.70
2022-08-02T22:33:38.540Z,18.60
2022-08-02T22:36:18.477Z,18.50
2022-08-02T22:38:47.030Z,18.40
2022-08-02T22:41:15.190Z,18.40
2022-08-02T22:43:43.199Z,18.30
2022-08-02T22:46:15.524Z,18.30
2022-08-02T22:48:47.410Z,18.30
2022-08-02T22:51:15.201Z,18.20
2022-08-02T22:53:43.430Z,18.20
2022-08-02T22:56:11.384Z,18.20
2022-08-02T22:58:43.670Z,27.00
2022-08-02T22:58:48.533Z,23.70
2022-08-02T22:58:53.025Z,23.20
2022-08-02T22:58:57.627Z,27.50
2022-08-02T22:59:00.084Z,26.90
2022-08-02T22:59:12.143Z,18.20
2022-08-02T23:01:26.117Z,18.20
2022-08-02T23:03:53.430Z,18.00
2022-08-02T23:06:22.549Z,17.90
2022-08-02T23:08:50.588Z,17.80
2022-08-02T23:11:17.630Z,17.70
2022-08-02T23:13:44.858Z,17.70
2022-08-02T23:16:30.272Z,17.60
2022-08-02T23:19:17.586Z,17.50
2022-08-02T23:22:00.837Z,17.30
2022-08-02T23:24:33.180Z,17.30
2022-08-02T23:27:01.501Z,17.30
2022-08-02T23:29:28.543Z,17.30
2022-08-02T23:31:55.624Z,17.20
2022-08-02T23:34:22.683Z,17.30
2022-08-02T23:36:49.776Z,17.30
2022-08-02T23:39:16.863Z,17.20
2022-08-02T23:41:43.849Z,17.20
2022-08-02T23:44:14.005Z,17.10
2022-08-02T23:46:46.236Z,17.00
2022-08-02T23:49:14.487Z,16.90
2022-08-02T23:51:41.605Z,16.80
2022-08-02T23:54:09.356Z,16.80
2022-08-02T23:56:36.835Z,16.80
2022-08-02T23:59:04.675Z,16.80
